Time;durP1;ratioP1;P1;durP2;ratioP2;P2;SDS_P1;SDS_P2;PMS_P1;PMS_P2;Temp;Humidity;BMP_temperature;BMP_pressure;BME280_temperature;BME280_humidity;BME280_pressure;Samples;Min_cycle;Max_cycle;Signal;HPM_P1;HPM_P2
2022/08/23 00:01:10;;;;;;;4.88;2.22;;;18.90;99.90;;;;;;4988375;28;20048;-73
2022/08/23 00:03:36;;;;;;;7.25;2.58;;;18.80;99.90;;;;;;5000056;28;20037;-73
2022/08/23 00:06:02;;;;;;;5.40;2.60;;;18.80;99.90;;;;;;4979583;28;20065;-73
2022/08/23 00:08:28;;;;;;;8.00;2.88;;;18.80;99.90;;;;;;4996363;28;20084;-73
2022/08/23 00:10:54;;;;;;;5.28;2.47;;;18.80;99.90;;;;;;4978351;28;20196;-73
2022/08/23 00:13:20;;;;;;;7.57;2.92;;;18.70;99.90;;;;;;4983665;28;20053;-73
2022/08/23 00:15:46;;;;;;;8.50;2.95;;;18.70;99.90;;;;;;4997714;28;20273;-73
2022/08/23 00:18:13;;;;;;;5.10;2.88;;;18.60;99.90;;;;;;4986747;28;20144;-74
2022/08/23 00:20:39;;;;;;;7.50;3.17;;;18.60;99.90;;;;;;4998776;28;20058;-74
2022/08/23 00:23:04;;;;;;;5.95;2.40;;;18.60;99.90;;;;;;4995558;28;20395;-73
2022/08/23 00:25:31;;;;;;;8.45;2.90;;;18.60;99.90;;;;;;5005851;28;20127;-73
2022/08/23 00:27:56;;;;;;;;;;;18.50;99.90;;;;;;5005263;28;20041;-73
2022/08/23 00:30:22;;;;;;;9.70;2.97;;;18.50;99.90;;;;;;5001697;28;19921;-73
2022/08/23 00:32:48;;;;;;;4.88;2.63;;;18.50;99.90;;;;;;5001287;28;20042;-73
2022/08/23 00:35:14;;;;;;;8.15;2.63;;;18.50;99.90;;;;;;4991726;28;20197;-73
2022/08/23 00:37:40;;;;;;;7.03;2.47;;;18.50;99.90;;;;;;4995261;28;20414;-74
2022/08/23 00:40:09;;;;;;;5.07;2.85;;;18.40;99.90;;;;;;5001062;28;20112;-73
2022/08/23 00:48:46;;;;;;;7.53;2.60;;;18.40;99.90;;;;;;4987071;28;20042;-73
2022/08/23 00:51:27;;;;;;;5.53;2.83;;;18.30;99.90;;;;;;5006977;28;20045;-74
2022/08/23 00:53:59;;;;;;;6.07;2.63;;;18.30;99.90;;;;;;5004213;28;20060;-73
2022/08/23 00:56:27;;;;;;;5.90;2.85;;;18.30;99.90;;;;;;4968920;28;20415;-73
2022/08/23 00:58:52;;;;;;;6.22;2.97;;;18.20;99.90;;;;;;4976140;28;20085;-73
2022/08/23 01:01:18;;;;;;;5.70;2.65;;;18.20;99.90;;;;;;5003405;28;20448;-74
2022/08/23 01:03:48;;;;;;;7.45;2.97;;;18.20;99.90;;;;;;4983517;28;20045;-74
2022/08/23 01:06:40;;;;;;;5.65;2.97;;;18.20;99.90;;;;;;4986376;28;20620;-74
2022/08/23 01:09:14;;;;;;;5.72;3.15;;;18.20;99.90;;;;;;4983909;28;20121;-74
2022/08/23 01:11:44;;;;;;;8.35;3.15;;;18.20;99.90;;;;;;4985582;28;20073;-73
2022/08/23 01:14:12;;;;;;;4.40;2.90;;;18.20;99.90;;;;;;4990033;28;20054;-74
2022/08/23 01:16:50;;;;;;;7.47;3.30;;;18.10;99.90;;;;;;5000201;23;20053;-72
2022/08/23 01:19:31;;;;;;;7.93;3.00;;;18.20;99.90;;;;;;5005183;28;20521;-73
2022/08/23 01:22:19;;;;;;;7.85;3.28;;;18.10;99.90;;;;;;4999700;28;20037;-73
2022/08/23 01:24:45;;;;;;;7.03;3.03;;;18.10;99.90;;;;;;4999094;28;20147;-72
2022/08/23 01:27:11;;;;;;;;;;;18.10;99.90;;;;;;5020578;28;20049;-73
2022/08/23 01:29:39;;;;;;;4.63;2.53;;;18.00;99.90;;;;;;5015514;28;19916;-73
2022/08/23 01:32:06;;;;;;;6.82;2.90;;;18.00;99.90;;;;;;5008643;28;20509;-73
2022/08/23 01:34:31;;;;;;;6.03;3.35;;;18.00;99.90;;;;;;4997137;28;20487;-73
2022/08/23 01:36:57;;;;;;;5.47;2.95;;;18.00;99.90;;;;;;4994612;28;20044;-73
2022/08/23 01:39:23;;;;;;;7.13;3.22;;;18.00;99.90;;;;;;5019755;28;20123;-72
2022/08/23 01:41:50;;;;;;;6.85;2.97;;;18.00;99.90;;;;;;5020281;28;20037;-72
2022/08/23 01:44:16;;;;;;;8.00;2.90;;;18.00;99.90;;;;;;4998634;28;20275;-72
2022/08/23 01:46:44;;;;;;;6.63;3.30;;;18.00;99.90;;;;;;4998803;28;20073;-73
2022/08/23 01:49:11;;;;;;;7.85;3.53;;;18.00;99.90;;;;;;4998550;28;20057;-73
2022/08/23 01:51:37;;;;;;;7.20;3.90;;;17.90;99.90;;;;;;5003460;28;20049;-73
2022/08/23 01:54:02;;;;;;;6.10;3.42;;;17.90;99.90;;;;;;4997389;28;20040;-73
2022/08/23 01:56:30;;;;;;;7.28;3.67;;;18.00;99.90;;;;;;5001810;28;20049;-73
2022/08/23 01:58:56;;;;;;;7.78;3.47;;;18.00;99.90;;;;;;5013999;28;20395;-72
2022/08/23 02:01:21;;;;;;;5.43;3.45;;;17.90;99.90;;;;;;4999487;28;20041;-73
2022/08/23 02:03:47;;;;;;;9.57;3.63;;;17.80;99.90;;;;;;5001253;28;20365;-72
2022/08/23 02:06:15;;;;;;;5.10;3.58;;;17.80;99.90;;;;;;5022205;28;20200;-72
2022/08/23 02:11:27;;;;;;;7.93;3.90;;;17.80;99.90;;;;;;4999167;28;20080;-72
2022/08/23 02:13:55;;;;;;;6.10;3.75;;;17.80;99.90;;;;;;5020765;28;20052;-72
2022/08/23 02:16:27;;;;;;;7.22;4.85;;;17.80;99.90;;;;;;5004266;28;20136;-72
2022/08/23 02:18:53;;;;;;;7.65;3.20;;;17.80;99.90;;;;;;5006527;28;20359;-72
2022/08/23 02:21:20;;;;;;;7.32;3.88;;;17.70;99.90;;;;;;5021363;28;20048;-72
2022/08/23 02:23:47;;;;;;;10.77;4.38;;;17.70;99.90;;;;;;4999048;28;20112;-73
2022/08/23 02:26:13;;;;;;;10.00;4.60;;;17.70;99.90;;;;;;5005393;28;20055;-72
2022/08/23 02:28:39;;;;;;;;;;;17.70;99.90;;;;;;5018932;28;20045;-72
2022/08/23 02:31:05;;;;;;;6.50;3.72;;;17.70;99.90;;;;;;5004275;28;20397;-73
2022/08/23 02:33:31;;;;;;;6.80;3.60;;;17.60;99.90;;;;;;5017942;28;20430;-72
2022/08/23 02:35:57;;;;;;;6.32;4.13;;;17.60;99.90;;;;;;5002035;28;20042;-72
2022/08/23 02:38:22;;;;;;;9.23;4.18;;;17.60;99.90;;;;;;5021204;28;20045;-72
2022/08/23 02:40:48;;;;;;;5.78;3.55;;;17.60;99.90;;;;;;5022152;28;20123;-72
2022/08/23 02:43:14;;;;;;;9.77;4.60;;;17.50;99.90;;;;;;4990837;28;20081;-72
2022/08/23 02:45:40;;;;;;;8.40;4.40;;;17.60;99.90;;;;;;5005487;28;20085;-72
2022/08/23 02:48:07;;;;;;;8.52;4.50;;;17.50;99.90;;;;;;5018936;28;20080;-72
2022/08/23 02:50:33;;;;;;;8.23;4.20;;;17.50;99.90;;;;;;5016995;28;20238;-72
2022/08/23 02:52:59;;;;;;;6.47;4.00;;;17.50;99.90;;;;;;5003953;28;20048;-73
2022/08/23 02:55:26;;;;;;;7.85;4.43;;;17.40;99.90;;;;;;5023145;28;20473;-72
2022/08/23 02:57:51;;;;;;;;;;;17.50;99.90;;;;;;5008295;28;20425;-73
2022/08/23 03:00:18;;;;;;;8.55;4.43;;;17.40;99.90;;;;;;5006382;28;20026;-72
2022/08/23 03:02:44;;;;;;;7.38;4.80;;;17.40;99.90;;;;;;5016394;28;20085;-73
2022/08/23 03:05:11;;;;;;;8.18;4.30;;;17.40;99.90;;;;;;5015789;28;20211;-72
2022/08/23 03:07:38;;;;;;;10.80;4.60;;;17.40;99.90;;;;;;5006652;28;20099;-72
2022/08/23 03:10:06;;;;;;;7.72;4.65;;;17.40;99.90;;;;;;5017070;28;20462;-72
2022/08/23 03:12:32;;;;;;;8.00;4.65;;;17.40;99.90;;;;;;4998167;28;20187;-73
2022/08/23 03:14:57;;;;;;;11.00;4.88;;;17.40;99.90;;;;;;4996117;28;20068;-72
2022/08/23 03:17:23;;;;;;;7.75;4.90;;;17.40;99.90;;;;;;5019292;28;20033;-72
2022/08/23 03:19:51;;;;;;;8.18;5.45;;;17.40;99.90;;;;;;5021128;28;20053;-73
2022/08/23 03:22:17;;;;;;;8.30;4.80;;;17.40;99.90;;;;;;5019290;28;20045;-72
2022/08/23 03:24:43;;;;;;;7.95;4.72;;;17.30;99.90;;;;;;4999458;28;20044;-73
2022/08/23 03:27:09;;;;;;;8.25;5.15;;;17.30;99.90;;;;;;5010199;28;20490;-73
2022/08/23 03:29:36;;;;;;;9.40;5.07;;;17.30;99.90;;;;;;5017735;28;20042;-73
2022/08/23 03:32:03;;;;;;;11.90;5.43;;;17.30;99.90;;;;;;4994079;28;20052;-73
2022/08/23 03:34:29;;;;;;;8.48;4.95;;;17.30;99.90;;;;;;5022285;28;20124;-73
2022/08/23 03:36:55;;;;;;;7.63;4.85;;;17.30;99.90;;;;;;5013932;28;20048;-73
2022/08/23 03:39:21;;;;;;;6.78;5.05;;;17.30;99.90;;;;;;5018911;28;20645;-73
2022/08/23 03:41:47;;;;;;;9.82;5.35;;;17.30;99.90;;;;;;5015899;28;20041;-73
2022/08/23 03:44:13;;;;;;;11.93;5.75;;;17.30;99.90;;;;;;5006185;28;20041;-73
2022/08/23 03:46:38;;;;;;;11.88;5.47;;;17.30;99.90;;;;;;4999111;28;20068;-73
2022/08/23 03:49:04;;;;;;;12.80;4.70;;;17.20;99.90;;;;;;5019436;28;20497;-73
2022/08/23 03:51:31;;;;;;;9.68;4.75;;;17.20;99.90;;;;;;5010613;28;20416;-73
2022/08/23 03:53:57;;;;;;;11.00;5.10;;;17.20;99.90;;;;;;5019364;28;20447;-73
2022/08/23 03:56:32;;;;;;;8.65;5.10;;;17.20;99.90;;;;;;4996415;28;20036;-72
2022/08/23 03:59:01;;;;;;;7.68;4.72;;;17.10;99.90;;;;;;5019422;28;20084;-72
2022/08/23 04:01:26;;;;;;;9.95;4.88;;;17.20;99.90;;;;;;5021104;28;20041;-72
2022/08/23 04:03:52;;;;;;;7.43;4.93;;;17.10;99.90;;;;;;5017982;28;20183;-73
2022/08/23 04:06:18;;;;;;;6.93;5.10;;;17.10;99.90;;;;;;5016759;28;20046;-73
2022/08/23 04:08:44;;;;;;;7.53;4.85;;;17.10;99.90;;;;;;5002342;28;20045;-73
2022/08/23 04:11:12;;;;;;;10.90;4.55;;;17.10;99.90;;;;;;4999165;28;20508;-73
2022/08/23 04:13:39;;;;;;;7.60;5.07;;;17.00;99.90;;;;;;5000038;28;20550;-73
2022/08/23 04:16:06;;;;;;;9.60;5.03;;;17.00;99.90;;;;;;4999943;28;20037;-73
2022/08/23 04:18:32;;;;;;;11.32;5.72;;;17.00;99.90;;;;;;5004400;28;20056;-73
2022/08/23 04:21:05;;;;;;;8.10;5.13;;;17.00;99.90;;;;;;5016442;28;20040;-73
2022/08/23 04:23:33;;;;;;;8.73;5.20;;;17.00;99.90;;;;;;5002190;28;20129;-73
2022/08/23 04:25:59;;;;;;;8.93;5.40;;;17.00;99.90;;;;;;5005493;28;20041;-72
2022/08/23 04:28:24;;;;;;;9.02;4.93;;;16.90;99.90;;;;;;5016291;28;20072;-73
2022/08/23 04:30:50;;;;;;;9.25;5.65;;;16.90;99.90;;;;;;5006968;28;20068;-72
2022/08/23 04:33:17;;;;;;;8.07;4.72;;;16.90;99.90;;;;;;5001529;28;20501;-73
2022/08/23 04:35:44;;;;;;;9.68;5.00;;;16.90;99.90;;;;;;5014994;28;20546;-73
2022/08/23 04:38:10;;;;;;;11.57;5.65;;;16.90;99.90;;;;;;5017394;28;20499;-73
2022/08/23 04:43:20;;;;;;;11.23;5.05;;;16.90;99.90;;;;;;5019647;28;20197;-73
2022/08/23 04:45:46;;;;;;;10.57;5.10;;;16.80;99.90;;;;;;4999734;28;20223;-73
2022/08/23 04:48:12;;;;;;;;;;;16.80;99.90;;;;;;5016513;28;20483;-73
2022/08/23 04:50:39;;;;;;;7.35;5.00;;;16.80;99.90;;;;;;5021000;28;19983;-73
2022/08/23 04:53:04;;;;;;;9.48;5.75;;;16.80;99.90;;;;;;5015967;28;20053;-73
2022/08/23 04:55:30;;;;;;;10.52;4.90;;;16.80;99.90;;;;;;5018617;28;20047;-73
2022/08/23 04:57:57;;;;;;;8.10;5.05;;;16.80;99.90;;;;;;5002137;28;20053;-73
2022/08/23 05:00:23;;;;;;;8.10;4.90;;;16.80;99.90;;;;;;5015847;28;20053;-73
2022/08/23 05:02:48;;;;;;;10.50;5.50;;;16.70;99.90;;;;;;5015761;28;20056;-73
2022/08/23 05:05:15;;;;;;;7.47;5.28;;;16.80;99.90;;;;;;5020269;28;20041;-73
2022/08/23 05:07:40;;;;;;;6.47;4.93;;;16.80;99.90;;;;;;5017660;28;20493;-73
2022/08/23 05:10:09;;;;;;;9.93;5.03;;;16.80;99.90;;;;;;5016290;28;20067;-73
2022/08/23 05:12:35;;;;;;;8.63;4.70;;;16.80;99.90;;;;;;5002093;28;20504;-73
2022/08/23 05:15:01;;;;;;;8.45;4.88;;;16.80;99.90;;;;;;5003735;28;20034;-73
2022/08/23 05:17:27;;;;;;;9.27;5.68;;;16.80;99.90;;;;;;4997008;28;20099;-73
2022/08/23 05:19:52;;;;;;;8.88;5.47;;;16.80;99.90;;;;;;5000213;28;20247;-74
2022/08/23 05:22:18;;;;;;;10.43;5.50;;;16.80;99.90;;;;;;5001095;28;20487;-73
2022/08/23 05:24:44;;;;;;;9.25;6.18;;;16.80;99.90;;;;;;5022122;28;20054;-73
2022/08/23 05:27:10;;;;;;;9.57;5.68;;;16.90;99.90;;;;;;5003218;28;20084;-73
2022/08/23 05:29:35;;;;;;;9.07;5.50;;;16.90;99.90;;;;;;5019928;28;20049;-73
2022/08/23 05:32:01;;;;;;;11.10;5.57;;;16.90;99.90;;;;;;4996349;28;20401;-73
2022/08/23 05:34:27;;;;;;;8.80;5.82;;;16.90;99.90;;;;;;5006816;28;20057;-73
2022/08/23 05:36:52;;;;;;;10.10;6.03;;;17.00;99.90;;;;;;5017352;28;20201;-73
2022/08/23 05:39:18;;;;;;;9.40;6.32;;;17.00;99.90;;;;;;4999380;28;20042;-73
2022/08/23 05:41:47;;;;;;;9.60;6.95;;;17.10;99.90;;;;;;5003448;28;20034;-73
2022/08/23 05:44:13;;;;;;;10.32;6.70;;;17.10;99.90;;;;;;5019955;28;20041;-73
2022/08/23 05:46:40;;;;;;;11.15;6.30;;;17.10;99.90;;;;;;4992279;28;20546;-73
2022/08/23 05:49:06;;;;;;;10.77;7.03;;;17.20;99.90;;;;;;5002763;28;20081;-73
2022/08/23 05:51:33;;;;;;;15.35;6.82;;;17.30;99.90;;;;;;5004223;28;20379;-73
2022/08/23 05:54:05;;;;;;;13.55;6.50;;;17.30;99.90;;;;;;5020751;28;20493;-74
2022/08/23 05:56:32;;;;;;;13.38;6.57;;;17.30;99.90;;;;;;5015514;28;20132;-74
2022/08/23 05:59:02;;;;;;;12.80;7.10;;;17.40;99.90;;;;;;5002032;28;20100;-74
2022/08/23 06:01:29;;;;;;;16.73;7.13;;;17.40;99.90;;;;;;5014808;28;20069;-74
2022/08/23 06:03:55;;;;;;;13.68;7.22;;;17.40;99.90;;;;;;5032476;28;20049;-75
2022/08/23 06:06:23;;;;;;;11.18;7.35;;;17.40;99.90;;;;;;5001428;28;20041;-74
2022/08/23 06:08:49;;;;;;;9.25;5.88;;;17.40;99.90;;;;;;5001534;28;20402;-74
2022/08/23 06:11:17;;;;;;;7.68;5.55;;;17.50;99.90;;;;;;5001586;28;20180;-76
2022/08/23 06:13:46;;;;;;;10.85;7.07;;;17.50;99.90;;;;;;5018950;28;20076;-74
2022/08/23 06:16:14;;;;;;;11.50;7.32;;;17.50;99.90;;;;;;5014338;28;20452;-74
2022/08/23 06:18:40;;;;;;;8.98;6.10;;;17.50;99.90;;;;;;5001055;28;20168;-74
2022/08/23 06:21:08;;;;;;;14.10;7.68;;;17.50;99.90;;;;;;4998196;28;20077;-74
2022/08/23 06:23:35;;;;;;;12.80;6.95;;;17.60;99.90;;;;;;5013064;28;20467;-73
2022/08/23 06:26:07;;;;;;;9.13;6.25;;;17.60;99.90;;;;;;5020155;28;20045;-73
2022/08/23 06:28:33;;;;;;;11.55;6.78;;;17.60;99.90;;;;;;4994150;28;20129;-74
2022/08/23 06:30:59;;;;;;;9.45;6.53;;;17.70;99.90;;;;;;4995837;28;20132;-74
2022/08/23 06:33:25;;;;;;;11.77;6.38;;;17.60;99.90;;;;;;5002385;28;20526;-74
2022/08/23 06:36:07;;;;;;;9.60;6.70;;;17.70;99.90;;;;;;5019763;28;20050;-74
2022/08/23 06:38:34;;;;;;;10.10;6.47;;;17.80;99.90;;;;;;5001471;28;20100;-74
2022/08/23 06:41:02;;;;;;;12.30;7.05;;;17.80;99.90;;;;;;5015355;28;20355;-74
2022/08/23 06:43:28;;;;;;;12.52;7.05;;;17.90;99.90;;;;;;5011925;28;20178;-74
2022/08/23 06:45:54;;;;;;;10.10;6.68;;;17.90;99.90;;;;;;5015592;28;20104;-74
2022/08/23 06:48:20;;;;;;;10.15;6.38;;;18.00;99.90;;;;;;5020641;28;20166;-74
2022/08/23 06:50:45;;;;;;;16.35;6.70;;;18.00;99.90;;;;;;5000380;28;20089;-74
2022/08/23 06:53:11;;;;;;;13.35;6.95;;;18.10;99.90;;;;;;5016029;28;20117;-74
2022/08/23 06:55:37;;;;;;;8.93;6.28;;;18.10;99.90;;;;;;5017847;28;20049;-74
2022/08/23 06:58:03;;;;;;;10.98;6.15;;;18.20;99.90;;;;;;5020851;28;20038;-74
2022/08/23 07:00:28;;;;;;;12.07;6.30;;;18.30;99.90;;;;;;5017262;28;20045;-74
2022/08/23 07:02:54;;;;;;;10.82;6.38;;;18.30;99.90;;;;;;5019722;28;20034;-74
2022/08/23 07:05:20;;;;;;;9.93;6.13;;;18.40;99.90;;;;;;5022345;28;20045;-74
2022/08/23 07:07:46;;;;;;;10.90;6.78;;;18.50;99.90;;;;;;5016137;28;20068;-74
2022/08/23 07:10:12;;;;;;;7.53;6.00;;;18.50;99.90;;;;;;5004149;28;20222;-74
2022/08/23 07:12:40;;;;;;;;;;;18.70;99.90;;;;;;5018113;28;20474;-74
2022/08/23 07:15:07;;;;;;;9.55;5.65;;;18.70;99.90;;;;;;5019134;28;19975;-74
2022/08/23 07:17:32;;;;;;;10.93;6.22;;;18.80;99.90;;;;;;5020954;28;20048;-74
2022/08/23 07:19:58;;;;;;;9.45;6.00;;;18.90;99.90;;;;;;4999273;28;20085;-75
2022/08/23 07:22:23;;;;;;;10.68;5.38;;;19.00;99.90;;;;;;5020132;28;20171;-74
2022/08/23 07:24:49;;;;;;;9.63;5.53;;;19.10;99.90;;;;;;5007911;28;20038;-74
2022/08/23 07:27:15;;;;;;;8.77;5.40;;;19.20;99.90;;;;;;5023029;28;20041;-74
2022/08/23 07:29:40;;;;;;;7.05;5.28;;;19.30;99.90;;;;;;4998871;28;20060;-74
2022/08/23 07:32:06;;;;;;;8.20;4.90;;;19.40;99.90;;;;;;5022209;28;20085;-74
2022/08/23 07:34:32;;;;;;;7.63;4.68;;;19.40;99.90;;;;;;5021055;28;20040;-74
2022/08/23 07:36:58;;;;;;;9.80;5.28;;;19.50;99.90;;;;;;4991202;28;20049;-74
2022/08/23 07:39:25;;;;;;;7.95;5.18;;;19.60;99.90;;;;;;5005216;28;20417;-75
2022/08/23 07:41:51;;;;;;;7.13;4.60;;;19.70;99.90;;;;;;5016463;28;20052;-75
2022/08/23 07:44:17;;;;;;;;;;;19.80;99.90;;;;;;4999295;28;20050;-74
2022/08/23 07:46:43;;;;;;;6.10;4.07;;;19.80;99.90;;;;;;5018394;28;20267;-74
2022/08/23 07:49:10;;;;;;;7.13;4.32;;;20.00;99.90;;;;;;5018082;28;20034;-74
2022/08/23 07:51:37;;;;;;;7.70;4.13;;;20.00;99.90;;;;;;5034893;28;20450;-74
2022/08/23 07:54:06;;;;;;;6.80;4.22;;;20.10;99.90;;;;;;4994173;28;20549;-74
2022/08/23 07:56:33;;;;;;;5.25;3.20;;;20.30;99.90;;;;;;5011219;28;20084;-74
2022/08/23 07:59:00;;;;;;;8.85;4.38;;;20.30;99.90;;;;;;5018322;28;20044;-74
2022/08/23 08:01:27;;;;;;;7.70;4.00;;;20.40;99.90;;;;;;5008916;28;20061;-74
2022/08/23 08:03:56;;;;;;;6.93;3.80;;;20.50;99.90;;;;;;5003508;28;20047;-74
2022/08/23 08:06:28;;;;;;;6.13;3.08;;;20.60;99.90;;;;;;5017656;28;20084;-74
2022/08/23 08:08:53;;;;;;;6.10;4.18;;;20.60;99.90;;;;;;5016891;28;20192;-75
2022/08/23 08:11:21;;;;;;;7.00;4.13;;;20.70;99.90;;;;;;5017889;28;20293;-74
2022/08/23 08:13:49;;;;;;;9.70;3.30;;;20.80;99.90;;;;;;5020596;28;20111;-74
2022/08/23 08:16:25;;;;;;;7.22;3.28;;;20.90;99.90;;;;;;5010221;28;20041;-74
2022/08/23 08:18:52;;;;;;;5.78;3.65;;;21.00;99.90;;;;;;5005887;28;20042;-74
2022/08/23 08:21:18;;;;;;;7.32;3.00;;;21.10;99.90;;;;;;5002691;28;20045;-74
2022/08/23 08:23:44;;;;;;;5.28;3.25;;;21.20;99.90;;;;;;5019626;28;20052;-74
2022/08/23 08:26:10;;;;;;;6.40;4.03;;;21.10;99.90;;;;;;5015273;28;20592;-74
2022/08/23 08:28:36;;;;;;;;;;;21.20;99.90;;;;;;5005291;28;20045;-75
2022/08/23 08:31:02;;;;;;;5.32;3.50;;;21.20;99.90;;;;;;5002814;28;20298;-74
2022/08/23 08:33:29;;;;;;;6.03;2.90;;;21.30;99.90;;;;;;5023515;28;20049;-74
2022/08/23 08:35:56;;;;;;;5.10;3.22;;;21.50;99.90;;;;;;5014252;28;20436;-75
2022/08/23 08:38:21;;;;;;;5.82;3.63;;;21.50;99.90;;;;;;5021091;28;20041;-74
2022/08/23 08:41:17;;;;;;;;;;;21.60;99.90;;;;;;5020619;28;20535;-74
2022/08/23 08:44:11;;;;;;;4.57;3.00;;;21.80;99.90;;;;;;5008798;28;20458;-76
2022/08/23 08:46:44;;;;;;;8.18;3.67;;;21.80;99.90;;;;;;5017157;28;20052;-78
2022/08/23 08:49:15;;;;;;;7.13;3.63;;;21.90;99.90;;;;;;5000872;28;20049;-78
2022/08/23 08:51:57;;;;;;;5.13;3.42;;;22.10;99.90;;;;;;5004848;28;20060;-75
2022/08/23 08:54:26;;;;;;;8.57;3.75;;;22.20;99.90;;;;;;5017695;28;20045;-74
2022/08/23 08:56:55;;;;;;;4.82;3.20;;;22.30;99.90;;;;;;5020381;28;20109;-75
2022/08/23 08:59:29;;;;;;;6.25;3.35;;;22.40;99.90;;;;;;5015752;28;20041;-75
2022/08/23 09:01:57;;;;;;;5.70;3.05;;;22.60;99.90;;;;;;4996676;28;20053;-75
2022/08/23 09:04:24;;;;;;;6.95;3.05;;;22.70;99.90;;;;;;5009831;28;20484;-75
2022/08/23 09:06:54;;;;;;;6.53;3.67;;;22.80;99.90;;;;;;5011381;28;20053;-75
2022/08/23 09:09:23;;;;;;;4.88;3.25;;;22.90;99.90;;;;;;5002564;28;20052;-74
2022/08/23 09:12:33;;;;;;;7.18;2.78;;;22.90;99.90;;;;;;4999314;28;20122;-74
2022/08/23 09:15:31;;;;;;;8.35;3.20;;;23.00;99.90;;;;;;4921046;29;20138;-76
2022/08/23 09:18:24;;;;;;;4.57;2.63;;;23.00;99.90;;;;;;4992788;28;20086;-74
2022/08/23 09:20:53;;;;;;;5.63;2.97;;;23.00;99.90;;;;;;4999432;28;20100;-76
2022/08/23 09:23:35;;;;;;;4.30;2.47;;;23.00;99.90;;;;;;5021283;28;20041;-75
2022/08/23 09:26:09;;;;;;;6.97;2.83;;;23.10;99.90;;;;;;5005755;28;20218;-75
2022/08/23 09:28:36;;;;;;;5.25;3.00;;;23.20;99.90;;;;;;5013456;28;20202;-75
2022/08/23 09:31:03;;;;;;;7.03;3.38;;;23.30;99.90;;;;;;5017042;28;20077;-76
2022/08/23 09:33:47;;;;;;;4.57;2.80;;;23.40;99.90;;;;;;5002055;28;20069;-75
2022/08/23 09:36:24;;;;;;;6.10;2.80;;;23.50;99.90;;;;;;5010063;28;20377;-73
2022/08/23 09:38:58;;;;;;;5.93;3.33;;;23.60;99.90;;;;;;4994762;28;21368;-75
2022/08/23 09:41:32;;;;;;;5.55;3.00;;;23.70;99.90;;;;;;5010009;28;20045;-75
2022/08/23 09:44:01;;;;;;;6.47;3.63;;;23.80;99.90;;;;;;4991167;28;20529;-74
2022/08/23 09:46:30;;;;;;;4.90;2.80;;;23.80;99.90;;;;;;5014953;28;20076;-75
2022/08/23 09:49:00;;;;;;;7.07;2.92;;;23.90;99.90;;;;;;5010944;28;20038;-75
2022/08/23 09:51:33;;;;;;;4.45;2.90;;;24.00;99.90;;;;;;4995870;28;20053;-74
2022/08/23 09:54:04;;;;;;;5.05;2.75;;;24.10;99.90;;;;;;4994015;28;20130;-75
2022/08/23 09:56:35;;;;;;;5.25;2.78;;;24.20;99.90;;;;;;4998350;28;20046;-74
2022/08/23 09:59:01;;;;;;;6.85;2.78;;;24.20;99.90;;;;;;5012708;28;20140;-74
2022/08/23 10:01:29;;;;;;;6.32;3.15;;;24.30;99.90;;;;;;5010994;28;20117;-75
2022/08/23 10:04:16;;;;;;;4.35;2.53;;;24.40;99.90;;;;;;5009089;28;20814;-75
2022/08/23 10:06:44;;;;;;;4.55;2.10;;;24.40;99.90;;;;;;4992978;28;20426;-74
2022/08/23 10:09:29;;;;;;;4.25;2.80;;;24.50;99.90;;;;;;4994325;28;20449;-75
2022/08/23 10:11:57;;;;;;;4.78;2.45;;;24.60;99.90;;;;;;5018665;28;20045;-75
2022/08/23 10:14:24;;;;;;;4.90;2.40;;;24.60;99.90;;;;;;5014297;28;20045;-75
2022/08/23 10:17:25;;;;;;;9.85;2.38;;;24.60;99.90;;;;;;5014155;28;20053;-75
2022/08/23 10:20:22;;;;;;;6.03;2.35;;;24.70;99.90;;;;;;4994033;28;20055;-75
2022/08/23 10:23:03;;;;;;;3.67;2.25;;;24.70;99.90;;;;;;5016996;28;20483;-75
2022/08/23 10:25:38;;;;;;;3.95;2.30;;;24.80;99.90;;;;;;5002205;28;20758;-75
2022/08/23 10:31:41;;;;;;;4.60;2.70;;;25.00;99.90;;;;;;4996436;28;20558;-75
2022/08/23 10:34:42;;;;;;;6.70;3.08;;;25.10;99.90;;;;;;5016412;28;20419;-75
2022/08/23 10:37:10;;;;;;;3.45;1.90;;;25.20;99.90;;;;;;5029790;28;20043;-74
2022/08/23 10:39:49;;;;;;;4.30;2.15;;;25.30;99.90;;;;;;5032409;28;20045;-75
2022/08/23 10:42:27;;;;;;;3.58;2.28;;;25.50;99.90;;;;;;5017791;28;20037;-75
2022/08/23 10:45:02;;;;;;;3.83;2.50;;;25.60;99.90;;;;;;5009658;28;20207;-75
2022/08/23 10:47:33;;;;;;;4.80;2.40;;;25.70;99.90;;;;;;5013648;28;20042;-74
2022/08/23 10:50:05;;;;;;;3.60;1.90;;;25.80;99.90;;;;;;5005171;28;20298;-75
2022/08/23 10:52:50;;;;;;;4.38;2.40;;;25.80;99.90;;;;;;5006562;28;20106;-75
2022/08/23 10:55:34;;;;;;;3.70;2.58;;;26.00;99.90;;;;;;5024462;28;20055;-75
2022/08/23 10:58:02;;;;;;;5.50;2.17;;;26.00;99.90;;;;;;5005142;28;20080;-75
2022/08/23 11:00:29;;;;;;;4.72;2.40;;;26.10;99.90;;;;;;5026263;28;20040;-75
2022/08/23 11:03:18;;;;;;;4.32;2.55;;;26.20;99.90;;;;;;5002666;28;20038;-75
2022/08/23 11:06:21;;;;;;;4.28;2.10;;;26.30;99.90;;;;;;5016624;28;20061;-75
2022/08/23 11:08:47;;;;;;;4.40;2.30;;;26.40;99.90;;;;;;5017460;28;20041;-77
2022/08/23 11:12:14;;;;;;;3.13;1.77;;;26.50;99.90;;;;;;5023813;28;20057;-75
2022/08/23 11:14:58;;;;;;;2.85;1.40;;;26.60;99.90;;;;;;4944005;28;20443;-75
2022/08/23 11:17:28;;;;;;;4.07;1.67;;;26.80;99.90;;;;;;4979124;28;20050;-75
2022/08/23 11:20:00;;;;;;;4.35;2.15;;;26.90;99.90;;;;;;5007953;28;20124;-75
2022/08/23 11:22:29;;;;;;;3.95;1.45;;;27.10;99.90;;;;;;5019647;28;20107;-75
2022/08/23 11:25:02;;;;;;;2.72;1.50;;;27.10;99.70;;;;;;5015863;28;20037;-75
2022/08/23 11:27:40;;;;;;;4.93;1.40;;;27.20;99.10;;;;;;5025379;28;20041;-75
2022/08/23 11:30:30;;;;;;;3.90;1.55;;;27.30;97.90;;;;;;5025912;28;20313;-75
2022/08/23 11:33:14;;;;;;;2.70;1.33;;;27.40;96.30;;;;;;5012439;28;20049;-75
2022/08/23 11:35:49;;;;;;;3.83;1.73;;;27.50;95.20;;;;;;5016502;28;20064;-75
2022/08/23 11:38:16;;;;;;;2.58;1.25;;;27.60;94.20;;;;;;5019279;28;20045;-75
2022/08/23 11:40:49;;;;;;;1.65;1.08;;;27.60;93.30;;;;;;5008627;28;20092;-75
2022/08/23 11:43:36;;;;;;;3.22;1.10;;;27.80;90.90;;;;;;4994744;28;20265;-75
2022/08/23 11:46:25;;;;;;;3.53;1.30;;;27.90;90.10;;;;;;4999627;28;20042;-75
2022/08/23 11:49:10;;;;;;;2.25;1.30;;;27.90;87.70;;;;;;5016656;28;20076;-75
2022/08/23 11:51:47;;;;;;;4.25;1.95;;;28.00;89.90;;;;;;5003631;28;20513;-75
2022/08/23 11:54:22;;;;;;;2.22;1.63;;;28.00;89.00;;;;;;5004521;28;20037;-75
2022/08/23 11:56:54;;;;;;;2.58;1.15;;;28.10;87.80;;;;;;5018080;28;20132;-75
2022/08/23 11:59:44;;;;;;;3.90;1.40;;;28.20;85.40;;;;;;5035448;28;20056;-75
2022/08/23 12:02:46;;;;;;;3.05;1.35;;;28.30;83.90;;;;;;5020239;28;20056;-75
2022/08/23 12:05:16;;;;;;;4.50;1.50;;;28.40;81.90;;;;;;4994449;28;20046;-76
2022/08/23 12:08:02;;;;;;;3.10;1.40;;;28.50;82.90;;;;;;5003149;28;20072;-75
2022/08/23 12:10:40;;;;;;;5.20;1.48;;;28.50;81.40;;;;;;5020111;28;20558;-75
2022/08/23 12:13:24;;;;;;;3.63;2.15;;;28.40;76.50;;;;;;5021045;28;20351;-75
2022/08/23 12:16:14;;;;;;;3.70;1.60;;;28.40;81.00;;;;;;5023269;28;20598;-75
2022/08/23 12:18:46;;;;;;;4.03;2.10;;;28.40;81.70;;;;;;5002074;28;20068;-75
2022/08/23 12:22:03;;;;;;;4.25;1.40;;;28.50;82.10;;;;;;4997742;28;20495;-75
2022/08/23 12:24:38;;;;;;;5.57;1.70;;;28.60;85.60;;;;;;4986261;28;20060;-75
2022/08/23 12:27:41;;;;;;;4.17;1.97;;;28.70;82.50;;;;;;5020379;28;20272;-75
2022/08/23 12:30:24;;;;;;;3.72;1.40;;;28.80;79.10;;;;;;5008305;28;20550;-75
2022/08/23 12:33:20;;;;;;;3.65;2.15;;;28.90;81.30;;;;;;5020664;28;20041;-75
2022/08/23 12:36:37;;;;;;;2.17;1.30;;;29.00;78.90;;;;;;5027022;28;20411;-75
2022/08/23 12:39:06;;;;;;;3.00;1.50;;;29.10;80.60;;;;;;4978371;28;20445;-75
2022/08/23 12:41:54;;;;;;;3.40;1.42;;;29.20;78.00;;;;;;5005941;28;20497;-75
2022/08/23 12:44:24;;;;;;;2.50;1.35;;;29.20;75.40;;;;;;5001443;28;20045;-75
2022/08/23 12:46:51;;;;;;;3.95;1.40;;;29.20;77.10;;;;;;5030264;28;20172;-75
2022/08/23 12:49:27;;;;;;;3.05;1.83;;;29.20;73.50;;;;;;5007119;28;20685;-75
2022/08/23 12:51:57;;;;;;;2.35;1.40;;;29.30;74.80;;;;;;5016228;28;20076;-75
2022/08/23 12:54:33;;;;;;;6.53;2.25;;;29.30;75.30;;;;;;5021922;28;20663;-75
2022/08/23 12:56:59;;;;;;;;;;;29.10;72.40;;;;;;4998471;28;20436;-75
2022/08/23 12:59:39;;;;;;;5.33;1.67;;;29.00;73.50;;;;;;5020370;28;19917;-75
2022/08/23 13:02:10;;;;;;;5.57;1.80;;;29.00;75.30;;;;;;5016466;28;20064;-75
2022/08/23 13:04:39;;;;;;;2.97;1.80;;;29.00;76.30;;;;;;4996235;28;20044;-75
2022/08/23 13:07:08;;;;;;;3.13;1.73;;;29.10;75.60;;;;;;4996929;28;20056;-75
2022/08/23 13:09:38;;;;;;;2.72;1.65;;;29.20;73.70;;;;;;4999390;28;20049;-75
2022/08/23 13:12:06;;;;;;;3.38;1.27;;;29.20;74.20;;;;;;5013684;28;20717;-75
2022/08/23 13:14:40;;;;;;;8.25;1.55;;;29.30;72.70;;;;;;5021899;28;20040;-75
2022/08/23 13:17:24;;;;;;;3.00;1.40;;;29.40;73.80;;;;;;5032652;23;20041;-71
2022/08/23 13:20:12;;;;;;;4.30;1.50;;;29.40;73.00;;;;;;4979300;28;20034;-71
2022/08/23 13:22:53;;;;;;;6.70;1.90;;;29.30;72.70;;;;;;5005411;28;20132;-71